South Lyon, Michigan
Current Conditions -  °F | °C
As of 4:53 AM on Thursday 23 Oct 2014 (Local Time) from KYIP Reporting Station
Clear Clear  
Wind Chill: 37°   Ceiling: Unl
Heat Index: 37°   Visibility: 10mi
Dew Point: 32°   Wind: 3mph
Humidity: 82%   Direction: 310°NW
Pressure: 30.26"   Gusts: NA
Location:  42.46°N, 83.65°W
Report Text: KYIP 230853Z 31003KT 10SM CLR 03/00 A3026 RMK AO2 SLP247 I1000 I3000 T00280000 56007
Loading
Personal Weather Stations






























Interactive Weather Map
Tropical Storm Tracking
New forecast layout! Learn more

10-Day Weather Forecast

Advertisements
Track Severe Weather on mobile